sensor_id;sensor_type;location;lat;lon;timestamp;P1;durP1;ratioP1;P2;durP2;ratioP2
51692;SDS011;37777;53.066;21.638;2022-10-29T00:01:37;25.85;;;14.80;;
51692;SDS011;37777;53.066;21.638;2022-10-29T00:08:40;26.90;;;13.10;;
51692;SDS011;37777;53.066;21.638;2022-10-29T00:15:42;23.00;;;12.63;;
51692;SDS011;37777;53.066;21.638;2022-10-29T00:22:43;26.35;;;13.90;;
51692;SDS011;37777;53.066;21.638;2022-10-29T00:29:45;23.90;;;12.70;;
51692;SDS011;37777;53.066;21.638;2022-10-29T00:36:47;25.05;;;13.48;;
51692;SDS011;37777;53.066;21.638;2022-10-29T00:43:50;24.42;;;12.43;;
51692;SDS011;37777;53.066;21.638;2022-10-29T00:50:52;19.55;;;11.65;;
51692;SDS011;37777;53.066;21.638;2022-10-29T00:57:55;19.38;;;11.98;;
51692;SDS011;37777;53.066;21.638;2022-10-29T01:04:58;24.88;;;12.55;;
51692;SDS011;37777;53.066;21.638;2022-10-29T01:48:23;22.75;;;12.13;;
51692;SDS011;37777;53.066;21.638;2022-10-29T01:55:33;20.25;;;10.55;;
51692;SDS011;37777;53.066;21.638;2022-10-29T02:10:14;20.58;;;11.30;;
51692;SDS011;37777;53.066;21.638;2022-10-29T02:17:18;22.70;;;10.57;;
51692;SDS011;37777;53.066;21.638;2022-10-29T02:24:20;21.08;;;11.07;;
51692;SDS011;37777;53.066;21.638;2022-10-29T02:31:22;16.98;;;9.45;;
51692;SDS011;37777;53.066;21.638;2022-10-29T02:38:24;20.40;;;10.38;;
51692;SDS011;37777;53.066;21.638;2022-10-29T02:45:26;15.77;;;9.68;;
51692;SDS011;37777;53.066;21.638;2022-10-29T02:52:27;14.90;;;9.15;;
51692;SDS011;37777;53.066;21.638;2022-10-29T02:59:29;16.63;;;9.65;;
51692;SDS011;37777;53.066;21.638;2022-10-29T03:06:31;20.77;;;10.75;;
51692;SDS011;37777;53.066;21.638;2022-10-29T03:13:33;16.90;;;9.40;;
51692;SDS011;37777;53.066;21.638;2022-10-29T03:20:34;21.40;;;9.38;;
51692;SDS011;37777;53.066;21.638;2022-10-29T03:27:39;15.38;;;8.75;;
51692;SDS011;37777;53.066;21.638;2022-10-29T03:34:41;17.50;;;9.65;;
51692;SDS011;37777;53.066;21.638;2022-10-29T03:41:43;18.35;;;9.45;;
51692;SDS011;37777;53.066;21.638;2022-10-29T03:48:47;21.95;;;9.60;;
51692;SDS011;37777;53.066;21.638;2022-10-29T03:55:50;20.95;;;9.82;;
51692;SDS011;37777;53.066;21.638;2022-10-29T04:02:52;24.45;;;8.95;;
51692;SDS011;37777;53.066;21.638;2022-10-29T04:09:54;22.05;;;9.40;;
51692;SDS011;37777;53.066;21.638;2022-10-29T04:16:57;18.40;;;9.50;;
51692;SDS011;37777;53.066;21.638;2022-10-29T04:23:59;19.40;;;9.55;;
51692;SDS011;37777;53.066;21.638;2022-10-29T04:31:21;15.05;;;8.57;;
51692;SDS011;37777;53.066;21.638;2022-10-29T04:38:22;14.27;;;9.57;;
51692;SDS011;37777;53.066;21.638;2022-10-29T04:45:25;21.40;;;10.20;;
51692;SDS011;37777;53.066;21.638;2022-10-29T04:52:27;20.60;;;9.25;;
51692;SDS011;37777;53.066;21.638;2022-10-29T04:59:28;16.60;;;9.68;;
51692;SDS011;37777;53.066;21.638;2022-10-29T05:06:30;22.30;;;9.82;;
51692;SDS011;37777;53.066;21.638;2022-10-29T05:13:32;18.95;;;10.18;;
51692;SDS011;37777;53.066;21.638;2022-10-29T05:20:34;18.30;;;11.88;;
51692;SDS011;37777;53.066;21.638;2022-10-29T05:27:36;22.65;;;11.63;;
51692;SDS011;37777;53.066;21.638;2022-10-29T05:34:38;22.38;;;11.02;;
51692;SDS011;37777;53.066;21.638;2022-10-29T05:41:45;19.88;;;10.95;;
51692;SDS011;37777;53.066;21.638;2022-10-29T05:48:47;21.95;;;10.80;;
51692;SDS011;37777;53.066;21.638;2022-10-29T05:55:49;23.52;;;12.23;;
51692;SDS011;37777;53.066;21.638;2022-10-29T06:02:51;20.90;;;10.85;;
51692;SDS011;37777;53.066;21.638;2022-10-29T06:09:53;23.40;;;11.80;;
51692;SDS011;37777;53.066;21.638;2022-10-29T06:16:55;16.05;;;8.93;;
51692;SDS011;37777;53.066;21.638;2022-10-29T06:23:56;23.85;;;10.52;;
51692;SDS011;37777;53.066;21.638;2022-10-29T06:30:58;20.17;;;10.98;;
51692;SDS011;37777;53.066;21.638;2022-10-29T06:38:00;24.70;;;10.82;;
51692;SDS011;37777;53.066;21.638;2022-10-29T06:45:11;21.25;;;10.25;;
51692;SDS011;37777;53.066;21.638;2022-10-29T06:52:13;17.60;;;10.23;;
51692;SDS011;37777;53.066;21.638;2022-10-29T06:59:15;16.48;;;9.50;;
51692;SDS011;37777;53.066;21.638;2022-10-29T07:06:20;19.17;;;10.18;;
51692;SDS011;37777;53.066;21.638;2022-10-29T07:13:22;17.10;;;9.05;;
51692;SDS011;37777;53.066;21.638;2022-10-29T07:20:25;18.80;;;8.88;;
51692;SDS011;37777;53.066;21.638;2022-10-29T07:27:27;16.38;;;6.38;;
51692;SDS011;37777;53.066;21.638;2022-10-29T07:34:29;14.23;;;7.93;;
51692;SDS011;37777;53.066;21.638;2022-10-29T07:41:31;17.67;;;9.13;;
51692;SDS011;37777;53.066;21.638;2022-10-29T07:48:32;24.13;;;9.75;;
51692;SDS011;37777;53.066;21.638;2022-10-29T07:55:34;17.65;;;8.93;;
51692;SDS011;37777;53.066;21.638;2022-10-29T08:02:36;17.15;;;9.05;;
51692;SDS011;37777;53.066;21.638;2022-10-29T08:09:38;19.27;;;9.35;;
51692;SDS011;37777;53.066;21.638;2022-10-29T08:16:41;12.65;;;7.15;;
51692;SDS011;37777;53.066;21.638;2022-10-29T08:23:43;15.75;;;8.10;;
51692;SDS011;37777;53.066;21.638;2022-10-29T08:30:47;16.65;;;8.90;;
51692;SDS011;37777;53.066;21.638;2022-10-29T08:37:49;16.75;;;9.13;;
51692;SDS011;37777;53.066;21.638;2022-10-29T08:44:56;22.30;;;10.13;;
51692;SDS011;37777;53.066;21.638;2022-10-29T08:52:11;16.52;;;8.48;;
51692;SDS011;37777;53.066;21.638;2022-10-29T08:59:21;18.95;;;10.43;;
51692;SDS011;37777;53.066;21.638;2022-10-29T09:28:31;18.65;;;9.75;;
51692;SDS011;37777;53.066;21.638;2022-10-29T09:35:39;21.90;;;10.38;;
51692;SDS011;37777;53.066;21.638;2022-10-29T09:42:43;27.08;;;11.55;;
51692;SDS011;37777;53.066;21.638;2022-10-29T09:56:51;37.17;;;14.00;;
51692;SDS011;37777;53.066;21.638;2022-10-29T10:03:57;28.83;;;13.45;;
51692;SDS011;37777;53.066;21.638;2022-10-29T10:11:05;28.70;;;13.15;;
51692;SDS011;37777;53.066;21.638;2022-10-29T10:25:33;44.35;;;15.57;;
51692;SDS011;37777;53.066;21.638;2022-10-29T10:32:36;29.33;;;15.27;;
51692;SDS011;37777;53.066;21.638;2022-10-29T10:39:38;29.55;;;14.02;;
51692;SDS011;37777;53.066;21.638;2022-10-29T10:46:42;25.02;;;12.70;;
51692;SDS011;37777;53.066;21.638;2022-10-29T10:53:46;22.50;;;12.50;;
51692;SDS011;37777;53.066;21.638;2022-10-29T11:00:50;21.77;;;11.80;;
51692;SDS011;37777;53.066;21.638;2022-10-29T11:08:00;21.85;;;10.77;;
51692;SDS011;37777;53.066;21.638;2022-10-29T11:22:46;22.83;;;10.80;;
51692;SDS011;37777;53.066;21.638;2022-10-29T11:37:22;22.92;;;10.70;;
51692;SDS011;37777;53.066;21.638;2022-10-29T11:44:26;20.20;;;10.10;;
51692;SDS011;37777;53.066;21.638;2022-10-29T11:51:34;19.15;;;9.07;;
51692;SDS011;37777;53.066;21.638;2022-10-29T12:34:44;14.52;;;6.18;;
51692;SDS011;37777;53.066;21.638;2022-10-29T12:41:49;9.75;;;5.85;;
51692;SDS011;37777;53.066;21.638;2022-10-29T12:55:57;10.98;;;5.07;;
51692;SDS011;37777;53.066;21.638;2022-10-29T13:02:59;7.88;;;4.78;;
51692;SDS011;37777;53.066;21.638;2022-10-29T13:17:26;14.23;;;5.15;;
51692;SDS011;37777;53.066;21.638;2022-10-29T13:24:29;5.07;;;3.72;;
51692;SDS011;37777;53.066;21.638;2022-10-29T13:53:14;6.78;;;3.38;;
51692;SDS011;37777;53.066;21.638;2022-10-29T14:00:19;11.80;;;4.53;;
51692;SDS011;37777;53.066;21.638;2022-10-29T14:21:51;10.52;;;4.97;;
51692;SDS011;37777;53.066;21.638;2022-10-29T14:28:54;12.05;;;5.05;;
51692;SDS011;37777;53.066;21.638;2022-10-29T14:36:02;18.67;;;5.63;;
51692;SDS011;37777;53.066;21.638;2022-10-29T14:43:11;11.23;;;5.05;;
51692;SDS011;37777;53.066;21.638;2022-10-29T14:50:22;11.10;;;5.00;;
51692;SDS011;37777;53.066;21.638;2022-10-29T14:57:25;13.38;;;7.25;;
51692;SDS011;37777;53.066;21.638;2022-10-29T15:04:28;8.90;;;5.47;;
51692;SDS011;37777;53.066;21.638;2022-10-29T15:11:37;14.68;;;5.55;;
51692;SDS011;37777;53.066;21.638;2022-10-29T15:18:39;13.67;;;7.23;;
51692;SDS011;37777;53.066;21.638;2022-10-29T15:25:42;12.85;;;5.18;;
51692;SDS011;37777;53.066;21.638;2022-10-29T15:32:45;11.20;;;5.93;;
51692;SDS011;37777;53.066;21.638;2022-10-29T15:46:56;19.00;;;8.68;;
51692;SDS011;37777;53.066;21.638;2022-10-29T15:54:00;15.52;;;8.75;;
51692;SDS011;37777;53.066;21.638;2022-10-29T16:01:03;13.85;;;8.13;;
51692;SDS011;37777;53.066;21.638;2022-10-29T16:08:05;17.52;;;9.40;;
51692;SDS011;37777;53.066;21.638;2022-10-29T16:15:17;13.68;;;8.23;;
51692;SDS011;37777;53.066;21.638;2022-10-29T16:22:21;17.17;;;8.65;;
51692;SDS011;37777;53.066;21.638;2022-10-29T16:29:25;23.25;;;9.40;;
51692;SDS011;37777;53.066;21.638;2022-10-29T16:36:27;20.20;;;9.45;;
51692;SDS011;37777;53.066;21.638;2022-10-29T16:43:34;18.45;;;9.07;;
51692;SDS011;37777;53.066;21.638;2022-10-29T16:50:38;15.20;;;9.80;;
51692;SDS011;37777;53.066;21.638;2022-10-29T16:57:43;18.27;;;10.35;;
51692;SDS011;37777;53.066;21.638;2022-10-29T17:04:50;21.70;;;10.07;;
51692;SDS011;37777;53.066;21.638;2022-10-29T17:11:57;14.63;;;9.10;;
51692;SDS011;37777;53.066;21.638;2022-10-29T17:19:03;14.55;;;7.95;;
51692;SDS011;37777;53.066;21.638;2022-10-29T17:26:09;23.08;;;8.07;;
51692;SDS011;37777;53.066;21.638;2022-10-29T17:33:15;16.95;;;8.60;;
51692;SDS011;37777;53.066;21.638;2022-10-29T17:40:18;16.30;;;8.52;;
51692;SDS011;37777;53.066;21.638;2022-10-29T17:47:21;21.08;;;8.07;;
51692;SDS011;37777;53.066;21.638;2022-10-29T17:54:25;13.45;;;7.05;;
51692;SDS011;37777;53.066;21.638;2022-10-29T18:01:31;8.90;;;5.30;;
51692;SDS011;37777;53.066;21.638;2022-10-29T18:08:36;16.33;;;6.68;;
51692;SDS011;37777;53.066;21.638;2022-10-29T18:15:40;16.48;;;6.97;;
51692;SDS011;37777;53.066;21.638;2022-10-29T18:22:43;19.67;;;7.68;;
51692;SDS011;37777;53.066;21.638;2022-10-29T18:29:45;16.10;;;7.50;;
51692;SDS011;37777;53.066;21.638;2022-10-29T18:36:47;16.30;;;6.72;;
51692;SDS011;37777;53.066;21.638;2022-10-29T18:43:53;15.55;;;7.43;;
51692;SDS011;37777;53.066;21.638;2022-10-29T18:51:29;17.85;;;7.72;;
51692;SDS011;37777;53.066;21.638;2022-10-29T18:58:26;22.38;;;6.80;;
51692;SDS011;37777;53.066;21.638;2022-10-29T19:05:28;13.20;;;6.50;;
51692;SDS011;37777;53.066;21.638;2022-10-29T19:12:31;7.50;;;4.65;;
51692;SDS011;37777;53.066;21.638;2022-10-29T19:19:36;10.73;;;4.72;;
51692;SDS011;37777;53.066;21.638;2022-10-29T19:26:38;11.70;;;5.68;;
51692;SDS011;37777;53.066;21.638;2022-10-29T19:33:41;11.38;;;5.97;;
51692;SDS011;37777;53.066;21.638;2022-10-29T19:40:43;13.88;;;5.50;;
51692;SDS011;37777;53.066;21.638;2022-10-29T19:47:47;16.98;;;7.53;;
51692;SDS011;37777;53.066;21.638;2022-10-29T19:54:49;12.95;;;6.25;;
51692;SDS011;37777;53.066;21.638;2022-10-29T20:01:51;14.23;;;7.43;;
51692;SDS011;37777;53.066;21.638;2022-10-29T20:08:53;15.32;;;7.18;;
51692;SDS011;37777;53.066;21.638;2022-10-29T20:15:56;13.68;;;6.55;;
51692;SDS011;37777;53.066;21.638;2022-10-29T20:22:58;14.77;;;7.68;;
51692;SDS011;37777;53.066;21.638;2022-10-29T20:30:02;14.70;;;5.88;;
51692;SDS011;37777;53.066;21.638;2022-10-29T20:37:05;17.63;;;7.25;;
51692;SDS011;37777;53.066;21.638;2022-10-29T20:44:08;17.83;;;6.72;;
51692;SDS011;37777;53.066;21.638;2022-10-29T20:51:11;13.10;;;6.82;;
51692;SDS011;37777;53.066;21.638;2022-10-29T20:58:15;13.23;;;6.50;;
51692;SDS011;37777;53.066;21.638;2022-10-29T21:05:17;17.63;;;7.05;;
51692;SDS011;37777;53.066;21.638;2022-10-29T21:12:19;14.65;;;6.38;;
51692;SDS011;37777;53.066;21.638;2022-10-29T21:19:21;12.75;;;5.80;;
51692;SDS011;37777;53.066;21.638;2022-10-29T21:26:24;12.80;;;5.88;;
51692;SDS011;37777;53.066;21.638;2022-10-29T21:33:25;14.57;;;6.70;;
51692;SDS011;37777;53.066;21.638;2022-10-29T21:40:27;12.95;;;5.80;;
51692;SDS011;37777;53.066;21.638;2022-10-29T21:47:29;14.30;;;6.07;;
51692;SDS011;37777;53.066;21.638;2022-10-29T21:54:31;17.33;;;5.75;;
51692;SDS011;37777;53.066;21.638;2022-10-29T22:01:33;8.90;;;5.50;;
51692;SDS011;37777;53.066;21.638;2022-10-29T22:08:36;8.85;;;4.82;;
51692;SDS011;37777;53.066;21.638;2022-10-29T22:15:38;11.63;;;5.07;;
51692;SDS011;37777;53.066;21.638;2022-10-29T22:22:39;7.57;;;3.95;;
51692;SDS011;37777;53.066;21.638;2022-10-29T22:29:41;19.05;;;4.35;;
51692;SDS011;37777;53.066;21.638;2022-10-29T22:36:43;11.65;;;4.40;;
51692;SDS011;37777;53.066;21.638;2022-10-29T22:43:45;8.45;;;4.75;;
51692;SDS011;37777;53.066;21.638;2022-10-29T22:50:47;8.32;;;4.40;;
51692;SDS011;37777;53.066;21.638;2022-10-29T22:57:48;9.77;;;4.57;;
51692;SDS011;37777;53.066;21.638;2022-10-29T23:04:50;8.00;;;4.20;;
51692;SDS011;37777;53.066;21.638;2022-10-29T23:11:52;7.43;;;3.72;;
51692;SDS011;37777;53.066;21.638;2022-10-29T23:18:55;9.25;;;4.03;;
51692;SDS011;37777;53.066;21.638;2022-10-29T23:25:57;8.57;;;4.50;;
51692;SDS011;37777;53.066;21.638;2022-10-29T23:33:02;13.45;;;4.93;;
51692;SDS011;37777;53.066;21.638;2022-10-29T23:40:04;9.30;;;4.18;;
51692;SDS011;37777;53.066;21.638;2022-10-29T23:47:06;7.53;;;4.25;;
51692;SDS011;37777;53.066;21.638;2022-10-29T23:54:08;9.35;;;4.18;;
